createdAt,value
2022-09-25T00:02:06.164Z,4.00
2022-09-25T00:04:34.754Z,1.75
2022-09-25T00:07:03.391Z,3.00
2022-09-25T00:09:31.873Z,2.25
2022-09-25T00:12:00.398Z,2.25
2022-09-25T00:14:28.883Z,2.00
2022-09-25T00:16:57.388Z,2.00
2022-09-25T00:19:44.008Z,2.50
2022-09-25T00:22:12.567Z,4.25
2022-09-25T00:24:41.177Z,2.75
2022-09-25T00:27:10.227Z,2.00
2022-09-25T00:29:40.617Z,2.00
2022-09-25T00:32:11.596Z,1.25
2022-09-25T00:34:41.485Z,2.25
2022-09-25T00:37:10.045Z,3.00
2022-09-25T00:39:38.545Z,3.00
2022-09-25T00:42:07.043Z,2.00
2022-09-25T00:44:58.966Z,1.00
2022-09-25T00:47:54.077Z,1.75
2022-09-25T00:50:32.628Z,1.00
2022-09-25T00:53:14.040Z,2.00
2022-09-25T00:55:45.549Z,2.00
2022-09-25T00:58:18.709Z,2.00
2022-09-25T01:00:47.606Z,2.00
2022-09-25T01:03:17.907Z,3.25
2022-09-25T01:05:47.421Z,1.00
2022-09-25T01:08:21.076Z,2.50
2022-09-25T01:10:49.515Z,2.75
2022-09-25T01:13:19.276Z,2.00
2022-09-25T01:16:05.489Z,2.00
2022-09-25T01:18:53.452Z,2.00
2022-09-25T01:21:39.631Z,2.00
2022-09-25T01:24:44.762Z,1.25
2022-09-25T01:27:30.219Z,2.25
2022-09-25T01:30:14.375Z,2.00
2022-09-25T01:33:00.988Z,2.00
2022-09-25T01:35:47.422Z,2.25
2022-09-25T01:38:16.273Z,3.00
2022-09-25T01:41:06.206Z,2.00
2022-09-25T01:43:51.373Z,3.00
2022-09-25T01:46:27.833Z,3.00
2022-09-25T01:49:04.097Z,2.75
2022-09-25T01:51:40.522Z,1.25
2022-09-25T01:54:24.048Z,2.00
2022-09-25T01:57:05.720Z,2.00
2022-09-25T01:59:49.198Z,2.50
2022-09-25T02:02:23.622Z,2.25
2022-09-25T02:05:03.443Z,2.25
2022-09-25T02:07:39.071Z,1.50
2022-09-25T02:10:21.556Z,2.00
2022-09-25T02:12:55.974Z,2.00
2022-09-25T02:15:33.798Z,1.25
2022-09-25T02:18:27.485Z,2.00
2022-09-25T02:21:21.193Z,1.25
2022-09-25T02:23:55.114Z,2.00
2022-09-25T02:26:30.250Z,2.00
2022-09-25T02:28:59.734Z,2.00
2022-09-25T02:31:52.363Z,2.00
2022-09-25T02:34:21.518Z,1.25
2022-09-25T02:36:50.262Z,2.50
2022-09-25T02:39:23.339Z,2.50
2022-09-25T02:42:20.572Z,2.00
2022-09-25T02:45:10.321Z,1.75
2022-09-25T02:47:44.583Z,1.75
2022-09-25T02:50:43.953Z,2.00
2022-09-25T02:53:20.912Z,1.50
2022-09-25T02:55:53.608Z,2.00
2022-09-25T02:58:38.063Z,2.00
2022-09-25T03:01:09.985Z,3.75
2022-09-25T03:03:40.674Z,3.00
2022-09-25T03:06:10.188Z,2.50
2022-09-25T03:08:46.608Z,2.00
2022-09-25T03:11:22.227Z,2.50
2022-09-25T03:14:02.633Z,2.00
2022-09-25T03:16:49.293Z,2.00
2022-09-25T03:19:19.854Z,2.00
2022-09-25T03:21:48.758Z,1.25
2022-09-25T03:24:17.427Z,2.00
2022-09-25T03:26:46.612Z,2.75
2022-09-25T03:29:18.356Z,2.25
2022-09-25T03:31:46.857Z,2.00
2022-09-25T03:34:17.859Z,1.00
2022-09-25T03:36:48.464Z,2.25
2022-09-25T03:39:18.903Z,2.75
2022-09-25T03:41:48.843Z,2.00
2022-09-25T03:44:17.365Z,2.00
2022-09-25T03:46:45.903Z,3.00
2022-09-25T03:49:14.973Z,3.00
2022-09-25T03:51:43.683Z,2.00
2022-09-25T03:54:12.416Z,2.00
2022-09-25T03:56:41.094Z,2.00
2022-09-25T03:59:09.659Z,1.00
2022-09-25T04:01:38.172Z,2.00
2022-09-25T04:04:07.020Z,2.00
2022-09-25T04:06:35.542Z,1.75
2022-09-25T04:09:06.242Z,2.00
2022-09-25T04:11:35.966Z,2.25
2022-09-25T04:14:04.364Z,2.25
2022-09-25T04:16:33.084Z,2.00
2022-09-25T04:19:01.584Z,1.50
2022-09-25T04:21:30.132Z,2.00
2022-09-25T04:24:16.908Z,3.00
2022-09-25T04:26:46.574Z,2.75
2022-09-25T04:29:16.368Z,4.50
2022-09-25T04:31:44.851Z,3.00
2022-09-25T04:34:13.598Z,3.00
2022-09-25T04:36:42.429Z,2.00
2022-09-25T04:39:12.515Z,3.50
2022-09-25T04:41:41.085Z,3.00
2022-09-25T04:44:09.611Z,2.25
2022-09-25T04:46:38.809Z,3.00
2022-09-25T04:49:07.628Z,4.25
2022-09-25T04:51:36.076Z,3.75
2022-09-25T04:54:04.761Z,3.00
2022-09-25T04:56:33.344Z,5.00
2022-09-25T04:59:01.837Z,2.00
2022-09-25T05:01:30.375Z,3.25
2022-09-25T05:03:59.043Z,4.50
2022-09-25T05:06:28.110Z,4.00
2022-09-25T05:08:58.324Z,3.00
2022-09-25T05:11:26.834Z,5.50
2022-09-25T05:13:55.597Z,3.25
2022-09-25T05:16:24.087Z,4.00
2022-09-25T05:18:52.667Z,2.75
2022-09-25T05:21:21.227Z,3.75
2022-09-25T05:23:49.774Z,2.00
2022-09-25T05:26:18.609Z,3.00
2022-09-25T05:28:51.469Z,7.25
2022-09-25T05:31:20.333Z,5.00
2022-09-25T05:33:49.648Z,3.00
2022-09-25T05:36:19.276Z,4.50
2022-09-25T05:38:49.225Z,2.75
2022-09-25T05:41:17.824Z,2.50
2022-09-25T05:43:51.364Z,2.50
2022-09-25T05:46:19.956Z,3.50
2022-09-25T05:48:48.493Z,3.00
2022-09-25T05:51:17.186Z,4.25
2022-09-25T05:53:45.677Z,5.00
2022-09-25T05:56:14.685Z,3.25
2022-09-25T05:58:43.165Z,3.75
2022-09-25T06:01:11.715Z,3.00
2022-09-25T06:03:40.264Z,4.00
2022-09-25T06:06:08.962Z,4.00
2022-09-25T06:08:37.624Z,4.50
2022-09-25T06:11:07.423Z,5.00
2022-09-25T06:13:37.954Z,5.50
2022-09-25T06:16:14.618Z,4.00
2022-09-25T06:18:43.261Z,3.00
2022-09-25T06:21:11.791Z,3.00
2022-09-25T06:23:40.335Z,4.25
2022-09-25T06:26:10.393Z,3.75
2022-09-25T06:28:39.539Z,3.50
2022-09-25T06:31:08.431Z,2.75
2022-09-25T06:33:36.910Z,4.25
2022-09-25T06:36:07.511Z,3.00
2022-09-25T06:38:36.097Z,4.25
2022-09-25T06:41:04.741Z,3.00
2022-09-25T06:43:33.469Z,2.75
2022-09-25T06:46:05.706Z,2.25
2022-09-25T06:48:34.336Z,2.75
2022-09-25T06:51:03.440Z,3.75
2022-09-25T06:53:31.850Z,3.00
2022-09-25T06:56:01.064Z,2.25
2022-09-25T06:58:31.545Z,2.00
2022-09-25T07:01:00.285Z,4.00
2022-09-25T07:03:47.738Z,3.00
2022-09-25T07:06:22.792Z,3.50
2022-09-25T07:08:53.143Z,5.50
2022-09-25T07:11:24.089Z,4.00
2022-09-25T07:13:56.049Z,2.75
2022-09-25T07:16:27.937Z,3.75
2022-09-25T07:19:04.573Z,5.00
2022-09-25T07:21:33.226Z,4.50
2022-09-25T07:24:01.694Z,4.25
2022-09-25T07:26:36.246Z,4.25
2022-09-25T07:29:10.510Z,5.00
2022-09-25T07:31:39.102Z,3.50
2022-09-25T07:34:10.371Z,3.50
2022-09-25T07:36:40.452Z,3.00
2022-09-25T07:39:09.509Z,5.50
2022-09-25T07:41:38.689Z,4.00
2022-09-25T07:44:24.874Z,3.00
2022-09-25T07:46:55.744Z,2.75
2022-09-25T07:49:24.235Z,2.00
2022-09-25T07:51:53.603Z,3.00
2022-09-25T07:54:22.089Z,1.75
2022-09-25T07:56:50.620Z,3.50
2022-09-25T07:59:19.127Z,4.50
2022-09-25T08:01:52.889Z,2.00
2022-09-25T08:04:22.566Z,2.50
2022-09-25T08:06:51.021Z,6.00
2022-09-25T08:09:19.463Z,2.75
2022-09-25T08:11:47.966Z,3.00
2022-09-25T08:14:17.064Z,3.00
2022-09-25T08:16:45.862Z,2.75
2022-09-25T08:19:18.667Z,3.00
2022-09-25T08:21:47.811Z,2.00
2022-09-25T08:24:16.332Z,1.75
2022-09-25T08:26:44.850Z,2.25
2022-09-25T08:29:13.510Z,1.00
2022-09-25T08:31:42.091Z,1.25
2022-09-25T08:34:38.887Z,1.50
2022-09-25T08:37:00.035Z,1.00
2022-09-25T08:39:28.544Z,1.00
2022-09-25T08:41:57.816Z,1.25
2022-09-25T08:44:49.060Z,1.00
2022-09-25T08:47:47.316Z,1.75
2022-09-25T08:50:24.273Z,1.50
2022-09-25T08:53:24.042Z,1.00
2022-09-25T08:56:11.588Z,1.00
2022-09-25T08:58:44.354Z,1.00
2022-09-25T09:01:19.741Z,1.00
2022-09-25T09:04:20.284Z,1.00
2022-09-25T09:07:24.520Z,1.00
2022-09-25T09:10:09.676Z,1.25
2022-09-25T09:12:53.615Z,1.00
2022-09-25T09:15:57.389Z,1.75
2022-09-25T09:18:28.678Z,2.00
2022-09-25T09:20:59.837Z,1.00
2022-09-25T09:23:45.313Z,1.50
2022-09-25T09:26:22.089Z,1.00
2022-09-25T09:29:12.804Z,1.00
2022-09-25T09:31:48.217Z,1.00
2022-09-25T09:34:53.054Z,1.00
2022-09-25T09:37:35.903Z,1.00
2022-09-25T09:40:18.842Z,1.00
2022-09-25T09:43:05.035Z,1.00
2022-09-25T09:45:43.201Z,1.00
2022-09-25T09:48:34.882Z,1.50
2022-09-25T09:51:24.314Z,1.00
2022-09-25T09:54:01.713Z,1.00
2022-09-25T09:56:33.371Z,1.00
2022-09-25T09:59:19.014Z,1.00
2022-09-25T10:01:59.609Z,1.00
2022-09-25T10:04:35.275Z,1.50
2022-09-25T10:07:13.238Z,1.00
2022-09-25T10:09:41.697Z,1.00
2022-09-25T10:12:35.019Z,1.00
2022-09-25T10:15:09.069Z,1.00
2022-09-25T10:17:39.026Z,1.00
2022-09-25T10:20:20.837Z,2.00
2022-09-25T10:22:54.909Z,2.00
2022-09-25T10:25:43.495Z,3.50
2022-09-25T10:28:28.836Z,3.00
2022-09-25T10:30:59.954Z,2.00
2022-09-25T10:33:32.012Z,1.50
2022-09-25T10:36:01.536Z,1.00
2022-09-25T10:38:43.349Z,1.75
2022-09-25T10:41:15.979Z,1.00
2022-09-25T10:43:56.816Z,2.00
2022-09-25T10:46:55.314Z,1.75
2022-09-25T10:49:47.538Z,1.00
2022-09-25T10:52:23.318Z,1.25
2022-09-25T10:54:53.466Z,1.00
2022-09-25T10:57:43.758Z,2.00
2022-09-25T11:00:23.764Z,1.00
2022-09-25T11:02:57.553Z,1.00
2022-09-25T11:05:34.851Z,2.00
2022-09-25T11:08:07.155Z,1.00
2022-09-25T11:10:48.565Z,2.00
2022-09-25T11:13:27.253Z,1.25
2022-09-25T11:16:03.318Z,1.00
2022-09-25T11:19:05.610Z,1.00
2022-09-25T11:21:37.896Z,1.00
2022-09-25T11:24:41.558Z,1.00
2022-09-25T11:27:21.931Z,1.00
2022-09-25T11:29:59.599Z,1.00
2022-09-25T11:32:28.205Z,1.00
2022-09-25T11:35:24.512Z,1.00
2022-09-25T11:38:47.798Z,1.50
2022-09-25T11:41:46.373Z,1.00
2022-09-25T11:44:33.836Z,1.00
2022-09-25T11:47:28.697Z,1.75
2022-09-25T11:50:00.150Z,1.00
2022-09-25T11:52:41.167Z,1.00
2022-09-25T11:55:30.675Z,1.00
2022-09-25T11:57:59.354Z,1.50
2022-09-25T12:00:48.388Z,1.25
2022-09-25T12:03:19.535Z,1.00
2022-09-25T12:06:19.556Z,1.25
2022-09-25T12:09:04.311Z,1.00
2022-09-25T12:11:57.181Z,1.00
2022-09-25T12:15:00.770Z,1.00
2022-09-25T12:17:53.205Z,1.00
2022-09-25T12:20:27.120Z,1.00
2022-09-25T12:23:19.043Z,1.75
2022-09-25T12:26:05.507Z,1.00
2022-09-25T12:28:57.006Z,1.00
2022-09-25T12:31:34.333Z,1.75
2022-09-25T12:34:34.138Z,1.00
2022-09-25T12:37:11.009Z,1.00
2022-09-25T12:40:07.215Z,1.00
2022-09-25T12:42:45.053Z,1.00
2022-09-25T12:45:25.710Z,1.00
2022-09-25T12:48:08.195Z,1.00
2022-09-25T12:51:18.539Z,1.00
2022-09-25T12:53:52.647Z,1.00
2022-09-25T12:57:07.772Z,2.25
2022-09-25T12:59:46.403Z,1.00
2022-09-25T13:02:39.720Z,1.00
2022-09-25T13:05:22.575Z,1.00
2022-09-25T13:07:54.276Z,1.00
2022-09-25T13:10:35.183Z,1.75
2022-09-25T13:13:12.133Z,1.00
2022-09-25T13:15:44.194Z,1.00
2022-09-25T13:18:20.860Z,1.00
2022-09-25T13:21:02.037Z,1.00
2022-09-25T13:23:37.804Z,1.00
2022-09-25T13:26:19.523Z,1.00
2022-09-25T13:28:58.594Z,1.00
2022-09-25T13:31:38.137Z,1.00
2022-09-25T13:34:14.570Z,1.00
2022-09-25T13:36:54.116Z,1.25
2022-09-25T13:39:44.762Z,1.00
2022-09-25T13:42:27.158Z,1.00
2022-09-25T13:45:40.778Z,1.00
2022-09-25T13:48:14.163Z,1.00
2022-09-25T13:51:11.273Z,1.00
2022-09-25T13:54:26.053Z,1.00
2022-09-25T13:56:56.056Z,1.50
2022-09-25T13:59:37.174Z,2.00
2022-09-25T14:02:45.463Z,1.00
2022-09-25T14:05:22.925Z,1.00
2022-09-25T14:07:57.035Z,1.00
2022-09-25T14:10:27.343Z,1.00
2022-09-25T14:12:56.423Z,1.00
2022-09-25T14:15:28.056Z,1.00
2022-09-25T14:17:59.082Z,1.75
2022-09-25T14:20:30.174Z,1.00
2022-09-25T14:23:07.037Z,1.00
2022-09-25T14:25:43.659Z,1.00
2022-09-25T14:28:26.410Z,1.00
2022-09-25T14:31:09.087Z,1.00
2022-09-25T14:34:02.288Z,2.75
2022-09-25T14:37:01.505Z,1.00
2022-09-25T14:39:31.588Z,1.00
2022-09-25T14:42:26.120Z,1.50
2022-09-25T14:45:09.864Z,1.25
2022-09-25T14:47:44.594Z,1.00
2022-09-25T14:50:31.239Z,1.00
2022-09-25T14:53:04.442Z,1.00
2022-09-25T14:55:39.371Z,1.00
2022-09-25T14:58:16.900Z,1.25
2022-09-25T15:00:51.927Z,1.00
2022-09-25T15:03:27.602Z,1.50
2022-09-25T15:05:57.634Z,2.00
2022-09-25T15:08:42.005Z,1.00
2022-09-25T15:11:19.900Z,1.00
2022-09-25T15:13:48.668Z,1.75
2022-09-25T15:16:38.548Z,1.75
2022-09-25T15:19:22.171Z,1.00
2022-09-25T15:21:54.993Z,1.00
2022-09-25T15:24:28.812Z,1.00
2022-09-25T15:27:04.833Z,2.25
2022-09-25T15:29:46.650Z,1.00
2022-09-25T15:32:30.779Z,1.00
2022-09-25T15:35:19.245Z,1.50
2022-09-25T15:37:48.923Z,1.00
2022-09-25T15:40:23.834Z,2.00
2022-09-25T15:42:52.831Z,1.00
2022-09-25T15:45:39.520Z,1.00
2022-09-25T15:48:25.359Z,3.00
2022-09-25T15:50:55.730Z,1.00
2022-09-25T15:53:31.466Z,1.00
2022-09-25T15:56:22.368Z,1.00
2022-09-25T16:00:07.413Z,1.00
2022-09-25T16:02:58.851Z,1.00
2022-09-25T16:05:37.283Z,1.00
2022-09-25T16:08:24.938Z,1.00
2022-09-25T16:11:20.907Z,1.00
2022-09-25T16:13:54.895Z,1.00
2022-09-25T16:16:32.643Z,1.00
2022-09-25T16:19:22.538Z,1.00
2022-09-25T16:21:51.294Z,1.00
2022-09-25T16:24:30.940Z,1.00
2022-09-25T16:27:04.400Z,1.00
2022-09-25T16:29:40.138Z,1.00
2022-09-25T16:32:18.256Z,1.00
2022-09-25T16:35:03.319Z,2.00
2022-09-25T16:37:35.761Z,1.00
2022-09-25T16:40:29.936Z,1.00
2022-09-25T16:42:59.499Z,1.00
2022-09-25T16:45:35.156Z,1.50
2022-09-25T16:48:30.050Z,1.75
2022-09-25T16:51:02.236Z,3.00
2022-09-25T16:53:31.310Z,1.00
2022-09-25T16:56:00.157Z,1.00
2022-09-25T16:58:28.786Z,1.75
2022-09-25T17:00:58.057Z,1.00
2022-09-25T17:03:26.556Z,1.00
2022-09-25T17:05:55.100Z,1.00
2022-09-25T17:08:26.156Z,1.50
2022-09-25T17:10:54.845Z,1.00
2022-09-25T17:13:28.670Z,1.00
2022-09-25T17:15:58.491Z,2.00
2022-09-25T17:18:27.154Z,1.00
2022-09-25T17:20:57.523Z,1.00
2022-09-25T17:23:27.522Z,1.00
2022-09-25T17:26:25.035Z,1.00
2022-09-25T17:28:53.505Z,2.00
2022-09-25T17:31:23.376Z,1.00
2022-09-25T17:33:52.165Z,1.00
2022-09-25T17:36:21.013Z,1.00
2022-09-25T17:38:49.522Z,1.00
2022-09-25T17:41:46.902Z,1.00
2022-09-25T17:44:24.590Z,1.00
2022-09-25T17:46:54.791Z,1.00
2022-09-25T17:49:24.414Z,1.00
2022-09-25T17:51:53.620Z,1.00
2022-09-25T17:54:22.381Z,1.00
2022-09-25T17:56:51.494Z,1.00
2022-09-25T17:59:20.020Z,1.00
2022-09-25T18:01:48.605Z,1.00
2022-09-25T18:04:25.641Z,1.00
2022-09-25T18:06:54.370Z,2.00
2022-09-25T18:09:22.958Z,1.00
2022-09-25T18:11:52.336Z,1.00
2022-09-25T18:14:20.829Z,1.00
2022-09-25T18:16:49.307Z,1.00
2022-09-25T18:19:37.965Z,1.00
2022-09-25T18:22:19.847Z,1.00
2022-09-25T18:24:53.744Z,1.00
2022-09-25T18:27:22.433Z,1.00
2022-09-25T18:29:50.956Z,1.00
2022-09-25T18:32:19.665Z,1.00
2022-09-25T18:34:48.279Z,1.00
2022-09-25T18:37:16.785Z,1.00
2022-09-25T18:39:47.164Z,1.00
2022-09-25T18:42:15.704Z,1.00
2022-09-25T18:44:44.272Z,1.00
2022-09-25T18:47:13.355Z,1.00
2022-09-25T18:49:42.261Z,1.00
2022-09-25T18:52:12.644Z,1.00
2022-09-25T18:54:43.053Z,1.00
2022-09-25T18:57:12.653Z,1.00
2022-09-25T18:59:42.015Z,1.00
2022-09-25T19:02:24.469Z,2.00
2022-09-25T19:04:57.550Z,1.00
2022-09-25T19:07:28.649Z,1.00
2022-09-25T19:09:59.235Z,1.00
2022-09-25T19:12:27.795Z,1.00
2022-09-25T19:14:56.295Z,1.00
2022-09-25T19:17:24.827Z,1.00
2022-09-25T19:19:53.517Z,1.00
2022-09-25T19:22:22.886Z,1.00
2022-09-25T19:24:53.665Z,1.00
2022-09-25T19:27:22.227Z,1.00
2022-09-25T19:29:50.738Z,1.00
2022-09-25T19:32:20.425Z,1.00
2022-09-25T19:34:49.335Z,1.00
2022-09-25T19:37:17.887Z,1.00
2022-09-25T19:40:04.993Z,1.00
2022-09-25T19:42:34.610Z,1.00
2022-09-25T19:45:03.234Z,1.00
2022-09-25T19:47:31.759Z,1.00
2022-09-25T19:50:00.452Z,1.00
2022-09-25T19:52:29.583Z,1.00
2022-09-25T19:54:58.099Z,1.00
2022-09-25T19:57:26.639Z,1.00
2022-09-25T19:59:55.660Z,1.00
2022-09-25T20:02:24.190Z,1.25
2022-09-25T20:04:52.680Z,1.00
2022-09-25T20:07:21.283Z,1.00
2022-09-25T20:09:49.759Z,1.00
2022-09-25T20:12:18.190Z,1.00
2022-09-25T20:14:46.679Z,1.00
2022-09-25T20:17:15.060Z,1.00
2022-09-25T20:19:43.540Z,1.00
2022-09-25T20:22:12.000Z,1.00
2022-09-25T20:24:40.529Z,1.00
2022-09-25T20:27:09.091Z,1.00
2022-09-25T20:29:37.670Z,1.00
2022-09-25T20:32:06.331Z,1.00
2022-09-25T20:34:34.762Z,1.00
2022-09-25T20:37:04.721Z,1.00
2022-09-25T20:39:33.281Z,1.00
2022-09-25T20:42:01.744Z,1.00
2022-09-25T20:44:30.281Z,1.00
2022-09-25T20:46:59.132Z,1.00
2022-09-25T20:49:27.620Z,1.00
2022-09-25T20:51:56.132Z,1.00
2022-09-25T20:54:29.425Z,1.00
2022-09-25T20:56:57.989Z,1.00
2022-09-25T20:59:26.580Z,1.00
2022-09-25T21:01:55.190Z,1.00
2022-09-25T21:04:23.749Z,1.00
2022-09-25T21:06:52.290Z,2.00
2022-09-25T21:09:23.240Z,1.00
2022-09-25T21:11:51.890Z,1.00
2022-09-25T21:14:29.045Z,1.00
2022-09-25T21:16:58.228Z,1.00
2022-09-25T21:19:29.054Z,1.00
2022-09-25T21:21:57.537Z,1.00
2022-09-25T21:24:26.085Z,1.00
2022-09-25T21:26:54.675Z,1.00
2022-09-25T21:29:23.155Z,1.00
2022-09-25T21:31:52.188Z,1.00
2022-09-25T21:34:20.937Z,1.00
2022-09-25T21:36:50.074Z,1.00
2022-09-25T21:39:20.884Z,1.00
2022-09-25T21:41:49.965Z,1.00
2022-09-25T21:44:21.363Z,1.00
2022-09-25T21:46:49.884Z,2.00
2022-09-25T21:49:20.693Z,1.00
2022-09-25T21:51:50.525Z,1.00
2022-09-25T21:54:19.451Z,1.00
2022-09-25T21:56:50.136Z,1.00
2022-09-25T21:59:18.878Z,1.00
2022-09-25T22:01:47.540Z,2.00
2022-09-25T22:04:17.147Z,1.00
2022-09-25T22:06:49.181Z,1.00
2022-09-25T22:09:21.898Z,1.00
2022-09-25T22:11:52.070Z,1.00
2022-09-25T22:14:22.372Z,1.00
2022-09-25T22:16:53.172Z,1.00
2022-09-25T22:19:28.172Z,1.00
2022-09-25T22:21:58.185Z,1.00
2022-09-25T22:24:27.617Z,1.00
2022-09-25T22:26:57.318Z,1.00
2022-09-25T22:29:27.575Z,1.00
2022-09-25T22:31:56.374Z,1.00
2022-09-25T22:34:28.265Z,1.00
2022-09-25T22:36:59.893Z,1.00
2022-09-25T22:39:29.364Z,1.00
2022-09-25T22:41:58.330Z,1.00
2022-09-25T22:44:27.474Z,1.00
2022-09-25T22:46:55.913Z,1.00
2022-09-25T22:49:24.462Z,1.00
2022-09-25T22:51:52.981Z,1.00
2022-09-25T22:54:21.851Z,1.00
2022-09-25T22:56:50.345Z,1.00
2022-09-25T22:59:19.119Z,1.00
2022-09-25T23:01:53.684Z,1.00
2022-09-25T23:04:25.318Z,1.00
2022-09-25T23:06:54.479Z,1.00
2022-09-25T23:09:28.207Z,2.00
2022-09-25T23:11:58.446Z,1.00
2022-09-25T23:14:31.485Z,1.00
2022-09-25T23:17:01.515Z,1.00
2022-09-25T23:19:30.114Z,1.00
2022-09-25T23:21:58.685Z,1.00
2022-09-25T23:24:27.497Z,1.00
2022-09-25T23:26:56.166Z,1.00
2022-09-25T23:29:24.928Z,1.00
2022-09-25T23:31:53.785Z,1.00
2022-09-25T23:34:22.274Z,1.00
2022-09-25T23:36:50.715Z,1.25
2022-09-25T23:39:21.085Z,1.00
2022-09-25T23:41:49.854Z,1.00
2022-09-25T23:44:18.686Z,2.00
2022-09-25T23:46:47.337Z,1.00
2022-09-25T23:49:16.643Z,1.00
2022-09-25T23:51:45.365Z,2.00
2022-09-25T23:54:13.935Z,1.00
2022-09-25T23:56:42.395Z,1.00
2022-09-25T23:59:12.885Z,1.00
